»·PEaware :: N5MW KVNY-KFLG

N5MW :: KVNY-KFLG

FLIGHT INFORMATION

Flight Status: Arrived
Operator: Privately registered:
United States
More flights under this callsign
Pilot: Max W. (2591)
Aircraft: SOCATA TBM-900
(TBM9)
More flights by this aircraft type
Origin: KVNY Van Nuys
United States
Destination: KFLG Flagstaff Pulliam
United States
More flights between these airports :: More routes between these airports
Route: +NUAL9 DAG FLG
File this flight plan on PilotEdge
Remarks:
Altitude:
(Current/Filed)
29,000ft
Speed:
(Current/Filed)
450kts
Departed: 30-Jul-18 01:39 PM
Arrived: 30-Jul-18 02:58 PM
Distance/Time
Traveled:
341nm/1:19
Distance/Time
To Go:
Arrived

Flight Plot

Page will automatically refresh every two minutes.

Flight plan parsing failed; only flown route is shown


Map Options




Map Legend


Flown Route
Filed Route
Departure Airport
Arrival Airport
Navaid (VOR, NDB)
Fix

Horizontal Profiles

Position Reports

Time Latitude Longitude Heading Altitude Ground
Speed
30-Jul-18 13:11 34.203968 -118.491355 359 805ft 0kts
30-Jul-18 13:12 34.203968 -118.491355 359 805ft 0kts
30-Jul-18 13:13 34.203968 -118.491355 359 805ft 0kts
30-Jul-18 13:14 34.203968 -118.491355 359 805ft 0kts
30-Jul-18 13:15 34.203968 -118.491355 359 805ft 0kts
30-Jul-18 13:16 34.203968 -118.491355 359 805ft 0kts
30-Jul-18 13:17 34.203968 -118.491355 359 805ft 0kts
30-Jul-18 13:18 34.203968 -118.491355 359 805ft 0kts
30-Jul-18 13:19 34.203968 -118.491355 359 805ft 0kts
30-Jul-18 13:20 34.203968 -118.491355 359 805ft 0kts
30-Jul-18 13:21 34.203968 -118.491355 359 805ft 0kts
30-Jul-18 13:22 34.203968 -118.491355 359 805ft 0kts
30-Jul-18 13:23 34.203968 -118.491355 358 805ft 0kts
30-Jul-18 13:24 34.203968 -118.491355 358 805ft 0kts
30-Jul-18 13:25 34.203968 -118.491355 359 805ft 0kts
30-Jul-18 13:26 34.203968 -118.491355 359 805ft 0kts
30-Jul-18 13:27 34.203968 -118.491355 359 805ft 0kts
30-Jul-18 13:28 34.203968 -118.491355 359 805ft 0kts
30-Jul-18 13:29 34.203968 -118.491355 359 805ft 0kts
30-Jul-18 13:30 34.203968 -118.491355 358 805ft 0kts
30-Jul-18 13:31 34.203968 -118.491355 359 805ft 0kts
30-Jul-18 13:32 34.204053 -118.491131 97 805ft 3kts
30-Jul-18 13:33 34.206143 -118.491176 359 805ft 13kts
30-Jul-18 13:34 34.210609 -118.491595 357 805ft 19kts
30-Jul-18 13:35 34.215403 -118.492154 350 805ft 12kts
30-Jul-18 13:36 34.215685 -118.492200 354 805ft 7kts
30-Jul-18 13:37 34.218582 -118.492243 46 805ft 0kts
30-Jul-18 13:38 34.218582 -118.492243 46 805ft 0kts
30-Jul-18 13:39 34.218632 -118.492177 49 805ft 5kts
30-Jul-18 13:40 34.205907 -118.489968 174 1169ft 117kts
30-Jul-18 13:41 34.174035 -118.469304 126 2353ft 153kts
30-Jul-18 13:42 34.162191 -118.432454 61 4268ft 155kts
30-Jul-18 13:43 34.211246 -118.417578 15 6649ft 165kts
30-Jul-18 13:44 34.255458 -118.403754 18 8899ft 166kts
30-Jul-18 13:45 34.300242 -118.388459 19 11048ft 171kts
30-Jul-18 13:46 34.346254 -118.372543 19 13111ft 177kts
30-Jul-18 13:47 34.386158 -118.358700 19 14762ft 184kts
30-Jul-18 13:48 34.434975 -118.341741 19 16627ft 191kts
30-Jul-18 13:49 34.477163 -118.309488 56 18300ft 189kts
30-Jul-18 13:50 34.509938 -118.258201 57 19969ft 199kts
30-Jul-18 13:51 34.549157 -118.195619 57 22092ft 205kts
30-Jul-18 13:52 34.578299 -118.148964 57 23457ft 214kts
30-Jul-18 13:53 34.614450 -118.090996 57 25268ft 220kts
30-Jul-18 13:54 34.635349 -118.023736 87 26870ft 218kts
30-Jul-18 13:55 34.643867 -117.949867 88 28331ft 226kts
30-Jul-18 13:56 34.651775 -117.877239 87 29091ft 253kts
30-Jul-18 13:57 34.661710 -117.785527 86 29088ft 294kts
30-Jul-18 13:58 34.681275 -117.696843 76 29096ft 317kts
30-Jul-18 13:59 34.704528 -117.606036 76 29108ft 323kts
30-Jul-18 14:00 34.731266 -117.501329 76 29111ft 329kts
30-Jul-18 14:01 34.758295 -117.395068 76 29110ft 331kts
30-Jul-18 14:02 34.785063 -117.289416 76 29104ft 332kts
30-Jul-18 14:03 34.812154 -117.182043 76 29083ft 333kts
30-Jul-18 14:04 34.839069 -117.074847 76 29055ft 333kts
30-Jul-18 14:05 34.865964 -116.967348 75 29041ft 333kts
30-Jul-18 14:06 34.892778 -116.859772 74 29037ft 333kts
30-Jul-18 14:07 34.919499 -116.752158 75 29038ft 334kts
30-Jul-18 14:08 34.946193 -116.644107 75 29039ft 335kts
30-Jul-18 14:09 34.964869 -116.534517 88 29049ft 332kts
30-Jul-18 14:10 34.971356 -116.422284 88 29026ft 330kts
30-Jul-18 14:11 34.977445 -116.313930 88 29038ft 328kts
30-Jul-18 14:12 34.983491 -116.204569 89 29048ft 327kts
30-Jul-18 14:13 34.989478 -116.094374 89 29053ft 327kts
30-Jul-18 14:14 34.995372 -115.984210 89 29051ft 325kts
30-Jul-18 14:15 35.001072 -115.875653 89 29053ft 323kts
30-Jul-18 14:16 35.006681 -115.767149 89 29060ft 323kts
30-Jul-18 14:17 35.012190 -115.658536 89 29062ft 323kts
30-Jul-18 14:18 35.017625 -115.549561 89 28993ft 324kts
30-Jul-18 14:19 35.023003 -115.439679 89 28922ft 325kts
30-Jul-18 14:20 35.028160 -115.332314 89 28910ft 324kts
30-Jul-18 14:21 35.033077 -115.228129 89 28910ft 323kts
30-Jul-18 14:22 35.038113 -115.119088 89 28905ft 323kts
30-Jul-18 14:23 35.043096 -115.009297 88 28896ft 325kts
30-Jul-18 14:24 35.048004 -114.899209 88 28892ft 326kts
30-Jul-18 14:25 35.052815 -114.788932 88 28892ft 326kts
30-Jul-18 14:26 35.057523 -114.678605 88 28892ft 327kts
30-Jul-18 14:27 35.062152 -114.567713 88 28893ft 328kts
30-Jul-18 14:28 35.066668 -114.457132 88 28894ft 328kts
30-Jul-18 14:29 35.070983 -114.349106 89 28914ft 328kts
30-Jul-18 14:30 35.075217 -114.240732 89 28936ft 327kts
30-Jul-18 14:31 35.079402 -114.131063 89 29012ft 324kts
30-Jul-18 14:32 35.083459 -114.022109 89 29093ft 321kts
30-Jul-18 14:33 35.087412 -113.913480 89 29121ft 321kts
30-Jul-18 14:34 35.091261 -113.804876 89 29121ft 322kts
30-Jul-18 14:35 35.095097 -113.693790 89 28467ft 339kts
30-Jul-18 14:36 35.099020 -113.577163 89 27525ft 348kts
30-Jul-18 14:37 35.103059 -113.465021 89 26595ft 349kts
30-Jul-18 14:38 35.106688 -113.349280 90 25623ft 348kts
30-Jul-18 14:39 35.110226 -113.233444 90 24633ft 345kts
30-Jul-18 14:40 35.113632 -113.118632 90 24177ft 329kts
30-Jul-18 14:41 35.116404 -113.012716 85 24232ft 317kts
30-Jul-18 14:42 35.119677 -112.904200 85 23618ft 328kts
30-Jul-18 14:43 35.122661 -112.793621 84 22631ft 320kts
30-Jul-18 14:44 35.125474 -112.686120 85 21638ft 314kts
30-Jul-18 14:45 35.128129 -112.580570 85 20655ft 311kts
30-Jul-18 14:46 35.130707 -112.474766 85 19384ft 319kts
30-Jul-18 14:47 35.133248 -112.365885 86 17907ft 321kts
30-Jul-18 14:48 35.135479 -112.266897 86 16547ft 317kts
30-Jul-18 14:49 35.137805 -112.160509 87 15054ft 309kts
30-Jul-18 14:50 35.139976 -112.056420 87 13466ft 307kts
30-Jul-18 14:51 35.141975 -111.956046 87 12890ft 284kts
30-Jul-18 14:52 35.128192 -111.860854 100 12011ft 282kts
30-Jul-18 14:53 35.113410 -111.770037 100 12005ft 267kts
30-Jul-18 14:54 35.100909 -111.682679 87 11684ft 247kts
30-Jul-18 14:55 35.133160 -111.612421 56 9271ft 225kts
30-Jul-18 14:56 35.173568 -111.586278 321 8572ft 171kts
30-Jul-18 14:57 35.180863 -111.629397 210 8065ft 118kts
30-Jul-18 14:58 35.155562 -111.653024 216 7307ft 110kts
30-Jul-18 14:59 35.141141 -111.669611 306 7014ft 14kts
30-Jul-18 15:00 35.138686 -111.672690 221 7014ft 20kts
30-Jul-18 15:01 35.137936 -111.674267 162 7014ft 0kts
30-Jul-18 15:02 35.137936 -111.674267 162 7014ft 0kts
30-Jul-18 15:03 35.137936 -111.674267 162 7014ft 0kts

Navigation Log

Ident Type
Flight plan parsing failed, navigation log unavailable